Time;durP1;ratioP1;P1;durP2;ratioP2;P2;SDS_P1;SDS_P2;PMS_P1;PMS_P2;Temp;Humidity;BMP_temperature;BMP_pressure;BME280_temperature;BME280_humidity;BME280_pressure;Samples;Min_cycle;Max_cycle;Signal;HPM_P1;HPM_P2
2023/09/14 00:00:35;;;;;;;11.47;8.60;;;;;;;19.67;72.91;96546.41;4929676;29;20186;-71
2023/09/14 00:03:02;;;;;;;9.73;8.73;;;;;;;19.67;73.02;96543.75;4928884;29;20174;-72
2023/09/14 00:05:28;;;;;;;15.40;9.43;;;;;;;19.75;72.90;96547.66;4929478;29;20226;-70
2023/09/14 00:07:54;;;;;;;12.03;8.27;;;;;;;19.72;72.81;96545.22;4927997;29;20434;-70
2023/09/14 00:10:19;;;;;;;17.60;9.40;;;;;;;19.73;72.89;96538.97;4929607;29;20498;-69
2023/09/14 00:12:45;;;;;;;10.27;8.73;;;;;;;19.79;72.23;96541.13;4929006;29;20179;-71
2023/09/14 00:15:10;;;;;;;14.83;9.00;;;;;;;19.79;72.03;96539.31;4929104;29;20248;-70
2023/09/14 00:17:36;;;;;;;8.43;7.53;;;;;;;19.77;71.99;96540.38;4928075;29;20178;-71
2023/09/14 00:20:01;;;;;;;8.53;7.03;;;;;;;19.78;71.96;96544.75;4928419;29;20190;-70
2023/09/14 00:22:26;;;;;;;8.93;8.07;;;;;;;19.64;72.86;96533.34;4928589;29;20850;-71
2023/09/14 00:24:52;;;;;;;10.27;9.17;;;;;;;19.39;74.01;96538.88;4929047;29;20178;-71
2023/09/14 00:27:18;;;;;;;11.50;9.37;;;;;;;19.41;74.10;96539.59;4929115;29;20266;-72
2023/09/14 00:29:46;;;;;;;10.30;8.30;;;;;;;19.52;73.27;96539.63;4928691;29;20206;-72
2023/09/14 00:32:11;;;;;;;12.83;8.80;;;;;;;19.58;72.89;96530.31;4931042;29;20452;-72
2023/09/14 00:34:37;;;;;;;10.90;8.40;;;;;;;19.67;72.65;96535.75;4931437;29;20430;-72
2023/09/14 00:37:02;;;;;;;12.87;8.53;;;;;;;19.66;72.17;96539.41;4937648;29;20175;-73
2023/09/14 00:39:28;;;;;;;9.00;8.10;;;;;;;19.67;72.00;96538.41;4930907;29;20202;-73
2023/09/14 00:41:53;;;;;;;10.00;8.83;;;;;;;19.72;71.87;96534.59;4944047;29;20179;-71
2023/09/14 00:44:18;;;;;;;9.53;8.53;;;;;;;19.68;71.90;96536.66;4927289;29;20278;-71
2023/09/14 00:46:44;;;;;;;9.20;8.27;;;;;;;19.69;71.82;96533.00;4912910;29;20684;-71
2023/09/14 00:49:10;;;;;;;10.00;8.80;;;;;;;19.61;72.04;96533.59;4927698;29;20195;-71
2023/09/14 00:51:36;;;;;;;8.73;7.80;;;;;;;19.57;72.12;96536.59;4928958;29;20266;-70
2023/09/14 00:54:03;;;;;;;8.73;7.97;;;;;;;19.54;72.42;96537.69;4928544;29;20206;-70
2023/09/14 00:56:29;;;;;;;9.00;7.53;;;;;;;19.41;72.65;96542.25;4928574;29;20465;-72
2023/09/14 00:58:55;;;;;;;11.20;8.43;;;;;;;19.44;72.53;96540.22;4927831;29;20438;-71
2023/09/14 01:01:22;;;;;;;12.20;7.50;;;;;;;19.42;72.65;96543.97;4928480;29;20466;-72
2023/09/14 01:03:48;;;;;;;12.10;8.47;;;;;;;19.42;72.62;96541.31;4929456;29;20497;-72
2023/09/14 01:06:13;;;;;;;11.50;8.67;;;;;;;19.38;72.74;96531.88;4928596;29;20812;-70
2023/09/14 01:08:39;;;;;;;10.53;8.20;;;;;;;19.06;74.53;96540.47;4927567;29;20683;-72
2023/09/14 01:11:05;;;;;;;10.67;8.43;;;;;;;19.13;74.42;96538.22;4928609;29;20430;-71
2023/09/14 01:14:00;;;;;;;10.00;9.00;;;;;;;18.99;75.35;96542.78;4928291;29;20588;-70
2023/09/14 01:16:39;;;;;;;10.83;9.27;;;;;;;18.65;76.56;96541.75;4928139;29;20209;-70
2023/09/14 01:19:27;;;;;;;10.70;8.80;;;;;;;18.77;75.94;96542.69;4927330;29;20440;-70
2023/09/14 01:22:18;;;;;;;15.13;9.50;;;;;;;18.90;75.30;96548.78;4927026;29;20979;-72
2023/09/14 01:24:57;;;;;;;10.40;9.30;;;;;;;18.94;74.89;96552.88;4928627;29;20419;-70
2023/09/14 01:27:23;;;;;;;11.83;10.63;;;;;;;18.91;74.97;96542.50;4928451;29;20458;-71
2023/09/14 01:29:48;;;;;;;11.70;9.10;;;;;;;18.97;74.80;96546.53;4927705;29;20465;-69
2023/09/14 01:32:14;;;;;;;10.10;8.60;;;;;;;18.92;74.60;96541.53;4928192;29;20218;-71
2023/09/14 01:34:40;;;;;;;8.30;7.53;;;;;;;19.03;73.70;96548.69;4928672;29;20541;-70
2023/09/14 01:37:06;;;;;;;12.83;9.27;;;;;;;19.02;72.64;96552.34;4928375;29;20163;-69
2023/09/14 01:39:33;;;;;;;9.03;7.60;;;;;;;18.95;71.86;96557.25;4927346;29;20241;-72
2023/09/14 01:41:59;;;;;;;10.43;8.17;;;;;;;19.02;71.31;96555.00;4928014;29;20414;-70
2023/09/14 01:44:26;;;;;;;12.03;8.57;;;;;;;18.97;71.20;96557.16;4927996;29;20411;-70
2023/09/14 01:46:52;;;;;;;10.70;8.23;;;;;;;18.97;70.94;96565.97;4927754;29;20206;-71
2023/09/14 01:49:18;;;;;;;12.03;8.33;;;;;;;18.93;71.27;96553.03;4910375;29;20449;-71
2023/09/14 01:51:43;;;;;;;10.63;9.20;;;;;;;18.88;70.96;96548.03;4928078;29;20167;-69
2023/09/14 01:54:08;;;;;;;13.00;8.73;;;;;;;18.92;70.50;96551.31;4928445;29;20171;-71
2023/09/14 01:56:34;;;;;;;8.60;7.60;;;;;;;19.04;70.75;96553.06;4927863;29;20642;-71
2023/09/14 01:58:59;;;;;;;9.43;8.53;;;;;;;19.04;70.34;96545.94;4927153;29;20203;-70
2023/09/14 02:01:25;;;;;;;9.63;8.37;;;;;;;19.02;70.56;96555.84;4927297;29;20175;-69
2023/09/14 02:03:50;;;;;;;9.90;7.13;;;;;;;19.11;69.46;96551.66;4928057;29;20167;-71
2023/09/14 02:06:15;;;;;;;11.20;8.00;;;;;;;19.21;69.25;96549.13;4927586;29;20233;-71
2023/09/14 02:08:41;;;;;;;11.03;8.80;;;;;;;19.23;68.83;96544.53;4926748;29;20203;-71
2023/09/14 02:11:06;;;;;;;9.43;8.47;;;;;;;19.33;68.57;96548.19;4927616;29;20190;-70
2023/09/14 02:13:34;;;;;;;8.83;7.97;;;;;;;19.29;68.55;96562.69;4928018;29;20214;-72
2023/09/14 02:15:59;;;;;;;8.53;7.10;;;;;;;19.20;69.04;96556.22;4936779;29;20171;-71
2023/09/14 02:18:24;;;;;;;9.00;7.57;;;;;;;19.14;68.87;96558.53;4939918;29;20426;-72
2023/09/14 02:20:50;;;;;;;9.50;8.43;;;;;;;19.08;69.20;96557.16;4934794;29;20201;-70
2023/09/14 02:23:17;;;;;;;9.00;8.10;;;;;;;19.16;68.96;96559.28;4933558;29;20226;-71
2023/09/14 02:25:43;;;;;;;10.60;7.40;;;;;;;19.08;69.16;96557.16;4930598;29;20213;-72
2023/09/14 02:28:08;;;;;;;8.03;7.20;;;;;;;19.16;68.85;96554.78;4930478;29;20434;-71
2023/09/14 02:30:38;;;;;;;10.00;9.00;;;;;;;19.12;68.89;96563.97;4931965;29;20186;-71
2023/09/14 02:33:04;;;;;;;9.13;8.23;;;;;;;19.08;68.87;96551.84;4931274;29;20175;-69
2023/09/14 02:35:29;;;;;;;13.90;8.03;;;;;;;19.12;68.45;96555.16;4931276;29;20406;-70
2023/09/14 02:37:55;;;;;;;10.23;9.10;;;;;;;18.94;69.31;96560.03;4930127;29;20179;-71
2023/09/14 02:40:20;;;;;;;10.53;8.90;;;;;;;18.86;69.62;96562.44;4931294;29;20178;-70
2023/09/14 02:42:45;;;;;;;9.00;8.10;;;;;;;19.01;69.19;96569.25;4930868;29;20679;-71
2023/09/14 02:45:11;;;;;;;8.97;8.07;;;;;;;19.03;69.25;96562.00;4930952;29;20175;-70
2023/09/14 02:47:36;;;;;;;8.37;7.57;;;;;;;19.04;69.20;96566.38;4930080;29;20743;-70
2023/09/14 02:50:02;;;;;;;11.90;9.17;;;;;;;18.98;69.37;96562.34;4930477;29;20218;-70
2023/09/14 02:52:28;;;;;;;10.27;8.07;;;;;;;19.05;69.14;96565.38;4930582;29;20174;-72
2023/09/14 02:54:54;;;;;;;14.57;9.40;;;;;;;19.00;69.07;96564.91;4930443;29;20210;-71
2023/09/14 02:57:19;;;;;;;12.70;9.10;;;;;;;18.98;69.26;96564.16;4930714;29;20812;-72
2023/09/14 02:59:44;;;;;;;10.53;8.20;;;;;;;19.00;69.38;96567.56;4929794;29;20209;-71
2023/09/14 03:02:10;;;;;;;10.03;8.57;;;;;;;19.03;69.32;96568.16;4929870;29;20222;-70
2023/09/14 03:04:35;;;;;;;10.00;8.23;;;;;;;18.97;69.46;96567.78;4930786;29;20178;-70
2023/09/14 03:07:00;;;;;;;10.17;8.77;;;;;;;19.01;69.31;96564.75;4930319;29;20731;-70
2023/09/14 03:09:26;;;;;;;14.17;9.10;;;;;;;19.02;69.34;96568.28;4929556;29;20984;-70
2023/09/14 03:11:53;;;;;;;9.73;8.73;;;;;;;18.93;69.47;96566.31;4930359;29;20580;-70
2023/09/14 03:14:19;;;;;;;13.23;10.37;;;;;;;18.93;69.20;96567.16;4930595;29;20218;-71
2023/09/14 03:16:44;;;;;;;10.40;8.83;;;;;;;18.83;70.00;96577.63;4929906;29;20438;-70
2023/09/14 03:19:09;;;;;;;11.53;9.83;;;;;;;18.92;69.84;96569.91;4929170;29;20719;-72
2023/09/14 03:21:35;;;;;;;12.50;9.97;;;;;;;18.97;69.72;96581.09;4929905;29;20186;-70
2023/09/14 03:24:00;;;;;;;16.07;11.73;;;;;;;18.93;69.72;96569.81;4930205;29;20225;-72
2023/09/14 03:26:28;;;;;;;16.40;10.27;;;;;;;18.83;70.10;96584.78;4930047;29;20202;-70
2023/09/14 03:28:54;;;;;;;12.00;10.80;;;;;;;18.91;70.08;96574.41;4929160;29;20202;-72
2023/09/14 03:31:20;;;;;;;15.17;9.93;;;;;;;18.99;69.71;96580.00;4929618;29;20442;-71
2023/09/14 03:33:47;;;;;;;11.37;9.40;;;;;;;19.04;69.66;96569.03;4930188;29;20426;-70
2023/09/14 03:36:13;;;;;;;10.57;9.47;;;;;;;19.19;68.99;96572.34;4929471;29;20708;-71
2023/09/14 03:38:38;;;;;;;12.60;11.30;;;;;;;18.88;70.15;96571.13;4928900;29;20497;-70
2023/09/14 03:41:03;;;;;;;13.33;11.63;;;;;;;18.88;70.38;96571.97;4929805;29;20205;-70
2023/09/14 03:43:29;;;;;;;13.70;10.60;;;;;;;18.86;70.41;96589.00;4929739;29;20218;-70
2023/09/14 03:45:57;;;;;;;12.90;11.60;;;;;;;18.99;70.16;96584.47;4929026;29;20208;-72
2023/09/14 03:48:22;;;;;;;11.17;10.03;;;;;;;18.93;70.43;96577.78;4928914;29;20207;-70
2023/09/14 03:50:48;;;;;;;14.83;11.10;;;;;;;18.98;70.16;96590.75;4929718;29;20453;-72
2023/09/14 03:53:14;;;;;;;11.33;10.13;;;;;;;18.86;70.50;96592.50;4929383;29;20189;-69
2023/09/14 03:55:39;;;;;;;14.80;10.97;;;;;;;18.94;70.50;96586.63;4929351;29;20448;-71
2023/09/14 03:58:05;;;;;;;13.50;10.60;;;;;;;18.80;70.82;96588.50;4928610;29;20640;-72
2023/09/14 04:00:31;;;;;;;12.80;10.60;;;;;;;18.80;70.92;96590.28;4929305;29;20183;-71
2023/09/14 04:02:56;;;;;;;13.27;10.87;;;;;;;18.89;70.52;96581.63;4929194;29;20190;-71
2023/09/14 04:05:22;;;;;;;16.63;11.60;;;;;;;18.85;70.73;96589.97;4929251;29;20175;-71
2023/09/14 04:07:48;;;;;;;17.00;10.87;;;;;;;18.88;70.66;96587.94;4928241;29;20189;-73
2023/09/14 04:10:13;;;;;;;14.07;10.97;;;;;;;18.89;70.75;96591.44;4927811;29;20875;-71
2023/09/14 04:12:40;;;;;;;12.57;10.20;;;;;;;18.92;70.65;96593.84;4929358;29;20261;-71
2023/09/14 04:15:06;;;;;;;13.57;10.20;;;;;;;18.90;70.56;96596.66;4929536;29;20710;-71
2023/09/14 04:17:32;;;;;;;14.30;11.63;;;;;;;18.94;70.42;96598.09;4928121;29;20605;-73
2023/09/14 04:19:58;;;;;;;13.17;11.63;;;;;;;18.98;70.32;96604.06;4929613;29;20811;-70
2023/09/14 04:22:23;;;;;;;12.73;11.40;;;;;;;19.06;69.92;96596.34;4928757;29;20430;-70
2023/09/14 04:24:49;;;;;;;21.93;12.40;;;;;;;19.06;69.94;96595.50;4929385;29;20345;-70
2023/09/14 04:27:14;;;;;;;16.63;12.17;;;;;;;18.96;70.29;96598.00;4928867;29;20199;-70
2023/09/14 04:29:40;;;;;;;18.20;12.97;;;;;;;18.91;70.28;96601.00;4928138;29;20210;-72
2023/09/14 04:32:06;;;;;;;15.27;11.63;;;;;;;19.00;70.11;96599.47;4928343;29;20186;-71
2023/09/14 04:34:31;;;;;;;14.93;12.27;;;;;;;18.91;70.14;96605.47;4929203;29;20185;-70
2023/09/14 04:36:57;;;;;;;18.33;12.63;;;;;;;18.91;70.35;96610.78;4928655;29;20298;-71
2023/09/14 04:39:22;;;;;;;16.77;12.60;;;;;;;18.93;70.23;96608.88;4927999;29;20562;-72
2023/09/14 04:41:47;;;;;;;12.70;11.40;;;;;;;18.93;70.36;96608.88;4928664;29;20187;-71
2023/09/14 04:44:13;;;;;;;36.23;14.33;;;;;;;18.86;70.74;96615.59;4928705;29;20187;-70
2023/09/14 04:46:38;;;;;;;18.43;13.40;;;;;;;18.93;70.59;96609.72;4928299;29;20572;-71
2023/09/14 04:49:03;;;;;;;18.70;12.80;;;;;;;18.90;70.87;96615.28;4927316;29;20199;-72
2023/09/14 04:51:29;;;;;;;26.40;14.37;;;;;;;18.96;70.78;96613.94;4928377;29;20179;-72
2023/09/14 04:53:54;;;;;;;21.93;12.47;;;;;;;18.87;70.88;96607.50;4928561;29;20175;-71
2023/09/14 04:56:20;;;;;;;16.17;12.73;;;;;;;18.94;70.72;96611.41;4928352;29;20170;-72
2023/09/14 04:58:45;;;;;;;21.70;13.93;;;;;;;18.86;71.02;96612.94;4928009;29;20218;-71
2023/09/14 05:01:10;;;;;;;17.90;12.60;;;;;;;18.86;71.17;96612.94;4928887;29;20374;-70
2023/09/14 05:03:36;;;;;;;14.13;12.43;;;;;;;19.02;70.50;96613.50;4928765;29;20229;-70
2023/09/14 05:06:04;;;;;;;14.80;13.13;;;;;;;19.18;70.12;96608.75;4928388;29;20218;-71
2023/09/14 05:08:29;;;;;;;29.27;15.13;;;;;;;18.87;70.99;96606.66;4926287;29;20245;-72
2023/09/14 05:10:55;;;;;;;17.97;15.50;;;;;;;18.77;71.32;96612.66;4928423;29;20415;-73
2023/09/14 05:13:20;;;;;;;17.13;14.00;;;;;;;18.88;71.25;96613.69;4928477;29;20206;-70
2023/09/14 05:15:46;;;;;;;16.93;15.13;;;;;;;18.82;71.41;96620.28;4928261;29;20175;-70
2023/09/14 05:18:12;;;;;;;18.87;13.77;;;;;;;18.90;71.11;96619.72;4926948;29;20195;-72
2023/09/14 05:20:42;;;;;;;27.40;13.20;;;;;;;18.83;71.56;96622.84;4927814;29;20427;-71
2023/09/14 05:23:08;;;;;;;15.77;14.17;;;;;;;18.98;70.81;96625.31;4932130;29;20179;-71
2023/09/14 05:25:33;;;;;;;15.60;14.00;;;;;;;18.77;71.24;96625.09;4911084;29;20467;-72
2023/09/14 05:27:59;;;;;;;17.13;13.93;;;;;;;18.79;71.36;96633.81;4926990;29;20189;-71
2023/09/14 05:30:25;;;;;;;17.33;13.90;;;;;;;18.64;71.99;96635.75;4928172;29;20258;-70
2023/09/14 05:32:50;;;;;;;19.10;15.83;;;;;;;18.61;72.10;96638.59;4927455;29;20204;-71
2023/09/14 05:35:16;;;;;;;44.73;15.73;;;;;;;18.58;72.33;96642.34;4930384;29;20182;-71
2023/09/14 05:37:41;;;;;;;21.53;14.97;;;;;;;18.73;71.91;96642.19;4931873;29;20258;-71
2023/09/14 05:40:11;;;;;;;14.27;12.87;;;;;;;18.66;72.01;96640.94;4930340;29;20967;-71
2023/09/14 05:42:39;;;;;;;14.00;12.60;;;;;;;18.60;72.27;96642.25;4937047;29;20226;-72
2023/09/14 05:45:06;;;;;;;17.87;12.90;;;;;;;18.53;72.76;96638.34;4936883;29;20809;-72
2023/09/14 05:47:31;;;;;;;17.60;15.37;;;;;;;18.73;72.31;96639.53;4932800;29;20549;-72
2023/09/14 05:49:57;;;;;;;14.57;13.03;;;;;;;18.75;72.15;96641.13;4932279;29;20506;-73
2023/09/14 05:52:23;;;;;;;17.87;15.30;;;;;;;18.58;73.03;96645.00;4928263;29;20183;-71
2023/09/14 05:54:48;;;;;;;16.23;14.30;;;;;;;18.59;72.91;96644.06;4928218;29;20179;-71
2023/09/14 05:57:14;;;;;;;16.93;14.23;;;;;;;18.42;73.93;96647.06;4928011;29;20817;-67
2023/09/14 05:59:42;;;;;;;13.40;11.57;;;;;;;19.07;72.60;96643.28;4928911;29;20211;-67
2023/09/14 06:02:08;;;;;;;16.47;12.60;;;;;;;19.24;72.50;96640.19;4931422;29;20183;-66
2023/09/14 06:04:34;;;;;;;24.60;14.97;;;;;;;19.70;69.38;96638.56;4915347;29;20426;-67
2023/09/14 06:07:00;;;;;;;42.33;16.13;;;;;;;20.13;68.39;96643.22;4931960;29;20257;-68
2023/09/14 06:09:26;;;;;;;16.57;10.60;;;;;;;20.40;67.77;96642.00;4931094;29;20198;-67
2023/09/14 06:11:52;;;;;;;17.60;12.60;;;;;;;20.15;67.77;96646.63;4931859;29;20244;-67
2023/09/14 06:14:18;;;;;;;24.90;12.03;;;;;;;20.29;67.41;96646.38;4931434;29;20887;-67
2023/09/14 06:16:43;;;;;;;17.10;10.10;;;;;;;20.51;66.86;96652.66;4931329;29;20270;-68
2023/09/14 06:19:08;;;;;;;18.50;11.17;;;;;;;20.45;66.57;96653.97;4931006;29;20198;-67
2023/09/14 06:21:34;;;;;;;14.33;12.83;;;;;;;19.78;68.11;96656.59;4931589;29;20183;-69
2023/09/14 06:24:01;;;;;;;35.53;16.13;;;;;;;19.34;70.11;96652.81;4932165;29;20728;-71
2023/09/14 06:26:30;;;;;;;17.43;15.40;;;;;;;19.32;70.90;96663.56;4931703;29;20462;-67
2023/09/14 06:28:56;;;;;;;13.53;10.67;;;;;;;19.33;70.19;96653.78;4931041;29;20190;-68
2023/09/14 06:31:24;;;;;;;15.07;13.47;;;;;;;19.18;71.58;96663.75;4931439;29;20419;-67
2023/09/14 06:33:50;;;;;;;14.93;13.33;;;;;;;19.36;69.96;96649.06;4932348;29;20521;-67
2023/09/14 06:36:19;;;;;;;18.43;15.77;;;;;;;19.05;70.89;96655.81;4931868;29;20920;-68
2023/09/14 06:38:48;;;;;;;20.93;15.73;;;;;;;18.87;71.76;96657.16;4930683;29;20683;-67
2023/09/14 06:41:15;;;;;;;19.47;14.63;;;;;;;18.83;72.17;96657.41;4931331;29;20427;-68
2023/09/14 06:43:45;;;;;;;18.73;15.83;;;;;;;18.65;72.68;96656.03;4931838;29;20460;-69
2023/09/14 06:46:11;;;;;;;16.17;14.47;;;;;;;18.32;74.01;96662.81;4930828;29;20463;-69
2023/09/14 06:48:37;;;;;;;17.57;15.67;;;;;;;18.09;75.14;96666.22;4929218;29;20466;-68
2023/09/14 06:51:03;;;;;;;22.10;15.67;;;;;;;18.35;74.28;96670.59;4929815;29;20453;-68
2023/09/14 06:53:28;;;;;;;21.50;15.60;;;;;;;18.53;73.71;96667.56;4931010;29;20418;-68
2023/09/14 06:55:54;;;;;;;17.90;15.30;;;;;;;18.50;73.63;96675.75;4934909;29;20194;-68
2023/09/14 06:58:19;;;;;;;15.90;14.30;;;;;;;18.43;73.89;96666.53;4930907;29;20684;-68
2023/09/14 07:00:45;;;;;;;32.60;15.20;;;;;;;18.55;73.50;96668.31;4936679;29;20302;-68
2023/09/14 07:03:10;;;;;;;28.17;14.80;;;;;;;18.59;73.17;96665.31;4932254;29;20183;-68
2023/09/14 07:05:37;;;;;;;22.07;14.93;;;;;;;18.49;73.89;96666.06;4934392;29;20528;-68
2023/09/14 07:08:03;;;;;;;25.10;14.40;;;;;;;18.48;73.95;96659.91;4928820;29;20634;-69
2023/09/14 07:10:29;;;;;;;18.40;14.17;;;;;;;18.54;73.49;96666.59;4937108;28;20438;-67
2023/09/14 07:12:54;;;;;;;18.50;13.90;;;;;;;18.46;73.50;96664.50;4930278;29;20238;-68
2023/09/14 07:15:20;;;;;;;19.90;15.87;;;;;;;18.51;72.73;96666.81;4933961;29;20433;-69
2023/09/14 07:17:45;;;;;;;16.40;14.70;;;;;;;18.38;72.95;96680.16;4933396;29;20258;-68
2023/09/14 07:20:11;;;;;;;16.17;14.47;;;;;;;18.60;71.79;96676.81;4928877;29;20708;-68
2023/09/14 07:22:37;;;;;;;16.23;13.93;;;;;;;18.54;71.70;96685.19;4911974;29;20171;-68
2023/09/14 07:25:03;;;;;;;38.37;13.97;;;;;;;18.94;71.59;96677.03;4911977;29;20183;-68
2023/09/14 07:27:29;;;;;;;17.93;15.57;;;;;;;19.24;70.16;96671.28;4911342;29;20960;-67
2023/09/14 07:29:54;;;;;;;24.13;12.50;;;;;;;19.43;70.60;96676.91;4911609;29;20442;-69
2023/09/14 07:32:19;;;;;;;25.97;13.30;;;;;;;19.38;69.62;96680.91;4912312;29;20249;-68
2023/09/14 07:34:45;;;;;;;19.13;12.93;;;;;;;19.53;69.00;96679.72;4912725;29;20656;-69
2023/09/14 07:37:10;;;;;;;55.67;16.50;;;;;;;19.88;67.28;96678.91;4912861;29;20615;-69
2023/09/14 07:39:35;;;;;;;28.30;14.70;;;;;;;19.45;68.09;96690.97;4898609;29;20195;-69
2023/09/14 07:42:01;;;;;;;50.90;15.57;;;;;;;19.19;69.17;96690.25;4911366;29;20230;-74
2023/09/14 07:44:26;;;;;;;49.03;16.97;;;;;;;19.25;68.68;96700.44;4910819;29;20758;-71
2023/09/14 07:46:52;;;;;;;32.40;14.47;;;;;;;19.09;69.05;96699.88;4910577;29;20343;-73
2023/09/14 07:49:17;;;;;;;25.20;15.20;;;;;;;18.87;70.35;96705.88;4910530;29;20196;-74
2023/09/14 07:51:42;;;;;;;21.73;14.07;;;;;;;19.10;69.39;96700.72;4912048;29;20167;-72
2023/09/14 07:54:08;;;;;;;77.87;19.00;;;;;;;19.07;69.51;96700.94;4895210;29;20176;-72
2023/09/14 07:56:33;;;;;;;30.13;15.90;;;;;;;19.09;69.82;96705.19;4914430;29;20178;-71
2023/09/14 07:58:59;;;;;;;16.07;13.20;;;;;;;19.14;69.49;96700.38;4911558;29;20196;-72
2023/09/14 08:01:24;;;;;;;19.40;13.73;;;;;;;19.18;69.26;96701.84;4918377;29;20218;-72
2023/09/14 08:03:49;;;;;;;22.33;14.70;;;;;;;19.14;69.26;96702.19;4914330;29;20258;-72
2023/09/14 08:06:18;;;;;;;20.30;14.13;;;;;;;19.19;69.28;96700.03;4913598;29;20685;-71
2023/09/14 08:08:44;;;;;;;21.13;13.80;;;;;;;18.99;70.01;96705.00;4910465;29;20246;-72
2023/09/14 08:11:09;;;;;;;25.93;13.90;;;;;;;19.07;70.06;96709.78;4911532;29;20523;-72
2023/09/14 08:13:35;;;;;;;17.03;14.73;;;;;;;18.90;70.42;96707.47;4911408;29;20175;-71
2023/09/14 08:16:05;;;;;;;27.17;14.03;;;;;;;19.09;70.15;96715.81;4914820;29;20190;-71
2023/09/14 08:18:30;;;;;;;48.80;15.73;;;;;;;18.96;70.04;96715.00;4918281;29;20200;-72
2023/09/14 08:20:56;;;;;;;18.57;13.80;;;;;;;19.12;70.10;96715.59;4919918;29;20477;-71
2023/09/14 08:23:21;;;;;;;18.27;13.93;;;;;;;19.22;69.74;96715.75;4929065;29;20707;-71
2023/09/14 08:25:47;;;;;;;17.10;14.07;;;;;;;19.19;69.78;96716.00;4930336;29;20239;-71
2023/09/14 08:28:14;;;;;;;20.57;12.70;;;;;;;19.20;69.64;96717.69;4929602;29;20207;-73
2023/09/14 08:30:44;;;;;;;20.40;14.20;;;;;;;18.81;69.14;96720.47;4930302;29;20518;-72
2023/09/14 08:33:12;;;;;;;16.00;14.30;;;;;;;18.75;69.91;96722.69;4912819;29;20501;-71
2023/09/14 08:35:38;;;;;;;21.13;12.97;;;;;;;18.74;69.61;96726.31;4930623;29;20486;-71
2023/09/14 08:38:06;;;;;;;14.93;13.50;;;;;;;18.74;69.46;96726.31;4929571;29;20651;-71
2023/09/14 08:40:32;;;;;;;20.83;14.00;;;;;;;18.89;69.29;96722.56;4930749;29;20466;-71
2023/09/14 08:43:02;;;;;;;19.57;14.03;;;;;;;18.88;69.12;96733.34;4931094;29;20407;-73
2023/09/14 08:45:31;;;;;;;38.07;14.07;;;;;;;19.12;68.43;96728.91;4929735;29;20461;-72
2023/09/14 08:47:59;;;;;;;36.93;15.00;;;;;;;19.45;67.68;96722.91;4930032;29;20450;-72
2023/09/14 08:50:26;;;;;;;19.27;13.23;;;;;;;19.66;67.17;96725.75;4930395;29;20414;-71
2023/09/14 08:52:52;;;;;;;20.57;13.63;;;;;;;19.90;65.74;96721.41;4930544;29;21162;-71
2023/09/14 08:55:19;;;;;;;26.73;14.80;;;;;;;19.96;65.82;96718.25;4930878;29;20446;-72
2023/09/14 08:57:46;;;;;;;15.77;12.57;;;;;;;20.05;65.26;96713.06;4929765;29;20213;-71
2023/09/14 09:00:15;;;;;;;18.07;12.87;;;;;;;19.96;65.32;96719.13;4930431;29;20522;-71
2023/09/14 09:02:52;;;;;;;22.27;12.97;;;;;;;20.04;65.02;96716.72;4936211;28;21088;-71
2023/09/14 09:05:19;;;;;;;17.50;11.90;;;;;;;20.29;64.18;96717.47;4935786;28;20457;-73
2023/09/14 09:07:47;;;;;;;13.77;12.37;;;;;;;20.43;64.02;96711.94;4920441;28;20478;-71
2023/09/14 09:10:24;;;;;;;16.33;12.70;;;;;;;20.36;62.86;96708.00;4936176;29;20535;-71
2023/09/14 09:13:00;;;;;;;14.33;10.00;;;;;;;20.41;63.05;96705.88;4930242;29;20867;-72
2023/09/14 09:15:29;;;;;;;14.33;9.93;;;;;;;20.86;61.68;96703.19;4931068;29;20411;-73
2023/09/14 09:18:02;;;;;;;10.03;9.00;;;;;;;21.27;59.27;96706.97;4929232;29;20970;-71
2023/09/14 09:20:27;;;;;;;12.53;10.83;;;;;;;21.69;57.84;96709.78;4943187;28;21166;-73
2023/09/14 09:22:57;;;;;;;8.20;6.87;;;;;;;21.96;55.26;96708.41;4932032;29;20490;-71
2023/09/14 09:25:23;;;;;;;9.30;7.03;;;;;;;22.22;53.63;96702.69;4932393;29;20639;-71
2023/09/14 09:27:57;;;;;;;15.60;7.40;;;;;;;22.80;52.93;96700.28;4929285;29;20422;-70
2023/09/14 09:30:29;;;;;;;15.90;7.40;;;;;;;22.16;53.39;96696.88;4933195;29;20300;-73
2023/09/14 09:32:55;;;;;;;13.63;7.00;;;;;;;22.16;54.16;96696.03;4929236;29;20449;-72
2023/09/14 09:35:26;;;;;;;9.60;7.17;;;;;;;22.50;52.80;96699.31;4933829;29;20453;-71
2023/09/14 09:37:54;;;;;;;15.30;7.47;;;;;;;22.08;53.90;96696.66;4932275;29;20907;-72
2023/09/14 09:40:23;;;;;;;12.40;7.67;;;;;;;;;;4933330;29;20407;-71
2023/09/14 09:42:49;;;;;;;27.50;9.93;;;;;;;21.86;54.85;96696.81;4933174;29;20791;-72
2023/09/14 09:45:15;;;;;;;11.37;6.20;;;;;;;22.30;54.34;96693.03;4935975;29;20448;-71
2023/09/14 09:47:41;;;;;;;20.20;7.50;;;;;;;22.10;54.46;96699.22;4929987;29;20478;-72
2023/09/14 09:50:12;;;;;;;8.20;6.00;;;;;;;22.16;54.95;96688.84;4933275;29;20314;-72
2023/09/14 09:52:39;;;;;;;10.13;6.50;;;;;;;22.23;54.52;96685.66;4930249;28;20939;-72
2023/09/14 09:55:06;;;;;;;10.97;6.53;;;;;;;22.45;54.46;96684.66;4933382;28;20434;-72
2023/09/14 09:57:36;;;;;;;11.40;6.50;;;;;;;22.66;53.91;96680.09;4930912;29;20427;-71
2023/09/14 10:00:15;;;;;;;27.77;8.20;;;;;;;22.29;53.32;96682.47;4931492;29;21068;-72
2023/09/14 10:02:40;;;;;;;12.23;6.73;;;;;;;22.33;53.75;96683.91;4930746;29;20529;-72
2023/09/14 10:05:07;;;;;;;22.83;7.93;;;;;;;22.21;54.08;96690.31;4932122;29;20794;-71
2023/09/14 10:07:40;;;;;;;11.13;7.47;;;;;;;22.06;54.13;96685.25;4933726;28;20273;-72
2023/09/14 10:10:22;;;;;;;17.17;5.80;;;;;;;22.15;54.26;96684.47;4936429;28;20866;-71
2023/09/14 10:12:48;;;;;;;12.23;5.80;;;;;;;22.32;53.68;96682.19;4931925;29;20982;-71
2023/09/14 10:15:15;;;;;;;7.63;6.40;;;;;;;22.02;53.59;96689.19;4933156;29;20532;-71
2023/09/14 10:17:40;;;;;;;6.87;6.17;;;;;;;21.44;55.21;96686.94;4942054;29;20187;-71
2023/09/14 10:20:06;;;;;;;6.70;6.10;;;;;;;21.35;55.53;96682.31;4932264;29;20927;-71
2023/09/14 10:22:31;;;;;;;23.07;7.70;;;;;;;21.74;54.86;96677.34;4932655;29;20635;-71
2023/09/14 10:24:58;;;;;;;8.83;6.57;;;;;;;22.09;53.15;96685.00;4937256;28;20185;-67
2023/09/14 10:27:27;;;;;;;7.33;6.50;;;;;;;21.37;54.22;96677.69;4934884;29;20881;-72
2023/09/14 10:29:55;;;;;;;11.07;6.60;;;;;;;21.51;54.57;96679.25;4931820;29;20442;-71
2023/09/14 10:32:22;;;;;;;8.70;6.43;;;;;;;21.64;54.50;96674.59;4932622;29;20407;-71
2023/09/14 10:34:50;;;;;;;11.63;6.90;;;;;;;21.63;54.39;96680.06;4932683;29;20456;-72
2023/09/14 10:37:18;;;;;;;9.63;6.57;;;;;;;21.24;54.94;96677.88;4929683;28;20614;-72
2023/09/14 10:39:45;;;;;;;8.20;6.40;;;;;;;21.50;54.89;96683.75;4927607;29;20987;-70
2023/09/14 10:42:10;;;;;;;6.10;5.40;;;;;;;21.78;53.55;96673.44;4931919;29;20425;-72
2023/09/14 10:44:36;;;;;;;8.20;7.40;;;;;;;21.66;54.44;96678.00;4932374;29;20764;-72
2023/09/14 10:47:03;;;;;;;6.67;5.97;;;;;;;21.62;54.54;96676.53;4930027;29;20207;-72
2023/09/14 10:49:32;;;;;;;10.30;6.00;;;;;;;21.66;54.31;96669.09;4942675;29;20213;-71
2023/09/14 10:51:57;;;;;;;8.43;6.73;;;;;;;21.47;54.36;96676.00;4951411;28;20433;-72
2023/09/14 10:54:29;;;;;;;8.50;6.20;;;;;;;21.77;53.04;96661.88;4943566;28;20504;-72
2023/09/14 10:56:58;;;;;;;12.27;6.63;;;;;;;;;;4930795;29;20230;-71
2023/09/14 11:00:00;;;;;;;8.53;7.00;;;;;;;21.55;54.64;96659.34;4931041;29;20951;-73
2023/09/14 11:02:45;;;;;;;11.13;6.43;;;;;;;21.54;55.04;96657.63;4924987;29;21038;-72
2023/09/14 11:05:38;;;;;;;8.43;7.63;;;;;;;21.54;55.28;96654.97;4920675;29;20494;-71
2023/09/14 11:08:03;;;;;;;7.63;6.90;;;;;;;21.36;56.07;96660.84;4926600;29;20415;-70
2023/09/14 11:10:29;;;;;;;10.60;6.67;;;;;;;21.78;55.10;96652.06;4933991;29;20463;-71
2023/09/14 11:13:24;;;;;;;10.60;7.50;;;;;;;21.64;55.08;96647.00;4931618;29;20182;-72
2023/09/14 11:16:12;;;;;;;36.10;9.53;;;;;;;22.49;53.43;96644.16;4930805;29;20414;-73
2023/09/14 11:18:43;;;;;;;8.03;6.70;;;;;;;22.15;53.75;96651.56;4930108;29;20531;-72
2023/09/14 11:21:32;;;;;;;10.80;6.30;;;;;;;22.16;54.04;96654.09;4921360;29;20443;-72
2023/09/14 11:23:58;;;;;;;7.80;6.50;;;;;;;22.74;52.88;96636.63;4910130;29;20453;-73